createdAt,value
2023-05-16T00:00:58.678Z,100283.78
2023-05-16T00:03:25.618Z,100284.31
2023-05-16T00:05:52.251Z,100294.22
2023-05-16T00:08:18.926Z,100293.50
2023-05-16T00:10:45.403Z,100296.94
2023-05-16T00:13:11.904Z,100298.56
2023-05-16T00:15:38.745Z,100302.13
2023-05-16T00:18:05.860Z,100302.81
2023-05-16T00:20:32.376Z,100302.28
2023-05-16T00:23:01.292Z,100302.47
2023-05-16T00:25:28.690Z,100307.56
2023-05-16T00:27:55.347Z,100298.94
2023-05-16T00:30:22.738Z,100303.16
2023-05-16T00:32:49.615Z,100302.31
2023-05-16T00:35:16.133Z,100304.81
2023-05-16T00:37:42.599Z,100304.03
2023-05-16T00:40:09.564Z,100308.72
2023-05-16T00:42:36.294Z,100305.28
2023-05-16T00:45:02.853Z,100308.31
2023-05-16T00:47:29.412Z,100314.41
2023-05-16T00:49:56.684Z,100322.81
2023-05-16T00:52:23.273Z,100315.75
2023-05-16T00:54:51.070Z,100314.03
2023-05-16T00:57:17.836Z,100317.16
2023-05-16T00:59:46.330Z,100318.88
2023-05-16T01:02:13.698Z,100328.91
2023-05-16T01:04:40.449Z,100332.44
2023-05-16T01:07:25.478Z,100332.28
2023-05-16T01:09:52.386Z,100330.88
2023-05-16T01:12:57.074Z,100340.06
2023-05-16T01:15:31.554Z,100340.34
2023-05-16T01:18:08.909Z,100335.34
2023-05-16T01:21:04.955Z,100346.38
2023-05-16T01:23:46.347Z,100351.94
2023-05-16T01:26:22.369Z,100351.75
2023-05-16T01:28:51.174Z,100364.34
2023-05-16T01:31:18.302Z,100357.19
2023-05-16T01:33:45.115Z,100365.75
2023-05-16T01:36:15.956Z,100366.75
2023-05-16T01:38:50.765Z,100373.97
2023-05-16T01:41:41.486Z,100385.03
2023-05-16T01:44:16.201Z,100387.00
2023-05-16T01:46:45.960Z,100388.66
2023-05-16T01:49:19.907Z,100382.63
2023-05-16T01:51:54.106Z,100396.19
2023-05-16T01:54:25.013Z,100398.22
2023-05-16T01:56:53.336Z,100407.41
2023-05-16T01:59:24.417Z,100410.22
2023-05-16T02:01:59.370Z,100415.78
2023-05-16T02:04:26.380Z,100413.69
2023-05-16T02:06:53.055Z,100417.19
2023-05-16T02:09:19.548Z,100420.06
2023-05-16T02:11:46.955Z,100417.88
2023-05-16T02:14:13.555Z,100423.34
2023-05-16T02:16:40.189Z,100421.03
2023-05-16T02:19:06.723Z,100426.38
2023-05-16T02:21:33.291Z,100435.50
2023-05-16T02:23:59.798Z,100424.59
2023-05-16T02:26:26.397Z,100441.19
2023-05-16T02:28:52.854Z,100445.66
2023-05-16T02:31:27.240Z,100446.72
2023-05-16T02:33:53.978Z,100446.38
2023-05-16T02:36:21.214Z,100448.53
2023-05-16T02:38:48.780Z,100449.16
2023-05-16T02:41:15.388Z,100452.09
2023-05-16T02:43:41.825Z,100457.97
2023-05-16T02:46:25.850Z,100466.00
2023-05-16T02:48:52.687Z,100470.72
2023-05-16T02:51:21.344Z,100462.63
2023-05-16T02:53:47.850Z,100466.84
2023-05-16T02:56:14.515Z,100479.00
2023-05-16T02:58:41.734Z,100477.69
2023-05-16T03:01:08.843Z,100475.66
2023-05-16T03:03:37.541Z,100488.00
2023-05-16T03:06:04.172Z,100489.53
2023-05-16T03:08:30.939Z,100490.75
2023-05-16T03:10:57.400Z,100499.78
2023-05-16T03:13:24.136Z,100488.56
2023-05-16T03:15:51.837Z,100500.09
2023-05-16T03:18:18.344Z,100505.91
2023-05-16T03:20:44.856Z,100499.56
2023-05-16T03:23:11.369Z,100504.66
2023-05-16T03:25:38.247Z,100508.03
2023-05-16T03:28:07.880Z,100514.41
2023-05-16T03:30:35.229Z,100515.00
2023-05-16T03:33:02.281Z,100512.75
2023-05-16T03:35:29.372Z,100515.00
2023-05-16T03:37:56.233Z,100518.19
2023-05-16T03:40:22.734Z,100524.50
2023-05-16T03:42:49.269Z,100522.06
2023-05-16T03:45:16.052Z,100518.03
2023-05-16T03:47:42.734Z,100526.50
2023-05-16T03:50:09.976Z,100527.53
2023-05-16T03:52:36.890Z,100522.91
2023-05-16T03:55:04.147Z,100519.09
2023-05-16T03:57:32.469Z,100526.78
2023-05-16T03:59:59.293Z,100528.94
2023-05-16T04:02:25.942Z,100526.22
2023-05-16T04:04:52.576Z,100532.78
2023-05-16T04:07:19.394Z,100546.25
2023-05-16T04:09:46.764Z,100545.09
2023-05-16T04:12:13.218Z,100548.63
2023-05-16T04:14:39.631Z,100553.44
2023-05-16T04:17:06.325Z,100558.69
2023-05-16T04:19:32.781Z,100565.84
2023-05-16T04:21:59.209Z,100561.84
2023-05-16T04:24:28.776Z,100568.03
2023-05-16T04:26:55.646Z,100576.69
2023-05-16T04:29:22.159Z,100590.38
2023-05-16T04:31:48.781Z,100575.47
2023-05-16T04:34:16.249Z,100575.31
2023-05-16T04:36:42.807Z,100569.34
2023-05-16T04:39:09.363Z,100581.41
2023-05-16T04:41:36.202Z,100583.19
2023-05-16T04:44:04.388Z,100586.84
2023-05-16T04:46:31.294Z,100588.91
2023-05-16T04:48:57.811Z,100597.25
2023-05-16T04:51:24.492Z,100588.84
2023-05-16T04:53:50.989Z,100589.22
2023-05-16T04:56:17.881Z,100598.19
2023-05-16T04:58:44.375Z,100611.78
2023-05-16T05:01:10.925Z,100609.53
2023-05-16T05:03:37.690Z,100614.06
2023-05-16T05:06:04.608Z,100615.75
2023-05-16T05:08:31.084Z,100619.78
2023-05-16T05:10:57.567Z,100626.53
2023-05-16T05:13:24.217Z,100630.44
2023-05-16T05:15:52.295Z,100636.47
2023-05-16T05:18:19.237Z,100635.47
2023-05-16T05:20:45.824Z,100643.19
2023-05-16T05:23:12.533Z,100645.28
2023-05-16T05:25:39.579Z,100658.25
2023-05-16T05:28:06.156Z,100661.63
2023-05-16T05:30:32.733Z,100659.03
2023-05-16T05:32:59.436Z,100665.84
2023-05-16T05:35:26.414Z,100664.25
2023-05-16T05:37:53.189Z,100669.25
2023-05-16T05:40:19.658Z,100670.78
2023-05-16T05:42:47.273Z,100682.03
2023-05-16T05:45:15.383Z,100685.56
2023-05-16T05:47:42.569Z,100684.16
2023-05-16T05:50:11.474Z,100686.47
2023-05-16T05:52:38.384Z,100687.84
2023-05-16T05:55:05.250Z,100692.34
2023-05-16T05:57:31.831Z,100699.59
2023-05-16T05:59:58.281Z,100699.94
2023-05-16T06:02:24.933Z,100699.53
2023-05-16T06:04:54.040Z,100698.59
2023-05-16T06:07:20.596Z,100701.88
2023-05-16T06:09:47.137Z,100702.97
2023-05-16T06:12:13.593Z,100707.34
2023-05-16T06:14:40.030Z,100706.56
2023-05-16T06:17:06.468Z,100711.75
2023-05-16T06:19:33.008Z,100711.09
2023-05-16T06:21:59.437Z,100711.69
2023-05-16T06:24:26.267Z,100707.09
2023-05-16T06:26:52.713Z,100713.47
2023-05-16T06:29:19.201Z,100713.53
2023-05-16T06:31:47.185Z,100715.22
2023-05-16T06:34:13.731Z,100710.91
2023-05-16T06:36:40.177Z,100723.47
2023-05-16T06:39:06.783Z,100727.75
2023-05-16T06:41:33.970Z,100730.66
2023-05-16T06:44:00.406Z,100733.59
2023-05-16T06:46:26.964Z,100742.47
2023-05-16T06:48:53.510Z,100745.59
2023-05-16T06:51:20.016Z,100742.75
2023-05-16T06:53:46.541Z,100740.16
2023-05-16T06:56:13.049Z,100746.22
2023-05-16T06:58:39.760Z,100753.94
2023-05-16T07:01:06.303Z,100759.66
2023-05-16T07:03:33.045Z,100754.72
2023-05-16T07:05:59.596Z,100763.22
2023-05-16T07:08:26.147Z,100763.88
2023-05-16T07:10:52.679Z,100763.88
2023-05-16T07:13:19.231Z,100776.56
2023-05-16T07:15:45.953Z,100771.13
2023-05-16T07:18:12.593Z,100759.97
2023-05-16T07:20:39.148Z,100770.47
2023-05-16T07:23:05.721Z,100775.38
2023-05-16T07:25:32.385Z,100769.25
2023-05-16T07:27:59.801Z,100782.50
2023-05-16T07:30:26.440Z,100782.69
2023-05-16T07:32:52.972Z,100781.31
2023-05-16T07:35:19.660Z,100777.44
2023-05-16T07:37:46.475Z,100779.81
2023-05-16T07:40:13.788Z,100776.25
2023-05-16T07:42:40.400Z,100776.78
2023-05-16T07:45:07.635Z,100772.00
2023-05-16T07:47:34.314Z,100779.06
2023-05-16T07:50:00.998Z,100776.66
2023-05-16T07:52:27.680Z,100785.91
2023-05-16T07:54:54.520Z,100799.34
2023-05-16T07:57:23.215Z,100796.88
2023-05-16T07:59:52.371Z,100797.94
2023-05-16T08:02:19.490Z,100804.34
2023-05-16T08:04:46.969Z,100804.69
2023-05-16T08:07:13.651Z,100805.50
2023-05-16T08:09:40.346Z,100813.78
2023-05-16T08:12:07.391Z,100820.53
2023-05-16T08:14:34.113Z,100821.50
2023-05-16T08:17:00.914Z,100823.28
2023-05-16T08:19:27.902Z,100842.88
2023-05-16T08:21:55.107Z,100838.28
2023-05-16T08:24:21.657Z,100842.09
2023-05-16T08:26:48.345Z,100849.13
2023-05-16T08:29:14.943Z,100843.28
2023-05-16T08:31:41.562Z,100838.88
2023-05-16T08:34:09.479Z,100845.06
2023-05-16T08:36:39.109Z,100847.88
2023-05-16T08:39:06.033Z,100841.56
2023-05-16T08:41:32.592Z,100842.34
2023-05-16T08:43:59.293Z,100852.97
2023-05-16T08:46:26.562Z,100844.31
2023-05-16T08:48:54.054Z,100839.00
2023-05-16T08:51:21.549Z,100839.81
2023-05-16T08:53:57.612Z,100837.28
2023-05-16T08:56:24.970Z,100834.69
2023-05-16T08:58:55.197Z,100835.72
2023-05-16T09:01:23.031Z,100836.19
2023-05-16T09:03:51.119Z,100833.50
2023-05-16T09:06:17.790Z,100830.81
2023-05-16T09:08:44.480Z,100830.75
2023-05-16T09:11:11.066Z,100831.13
2023-05-16T09:13:38.983Z,100834.03
2023-05-16T09:16:09.811Z,100846.38
2023-05-16T09:18:37.474Z,100848.13
2023-05-16T09:21:06.260Z,100861.19
2023-05-16T09:23:35.104Z,100853.50
2023-05-16T09:26:05.324Z,100851.03
2023-05-16T09:28:31.952Z,100856.03
2023-05-16T09:30:59.955Z,100858.78
2023-05-16T09:33:29.964Z,100855.56
2023-05-16T09:36:00.819Z,100867.06
2023-05-16T09:38:28.481Z,100873.28
2023-05-16T09:40:55.849Z,100870.66
2023-05-16T09:43:28.531Z,100864.06
2023-05-16T09:45:56.072Z,100862.16
2023-05-16T09:48:23.765Z,100878.13
2023-05-16T09:50:53.328Z,100884.25
2023-05-16T09:53:32.403Z,100890.50
2023-05-16T09:56:10.982Z,100889.59
2023-05-16T09:58:42.628Z,100893.88
2023-05-16T10:01:09.772Z,100895.19
2023-05-16T10:03:41.238Z,100882.31
2023-05-16T10:06:09.001Z,100881.84
2023-05-16T10:08:36.989Z,100882.53
2023-05-16T10:11:06.447Z,100897.03
2023-05-16T10:13:37.699Z,100889.75
2023-05-16T10:16:11.319Z,100884.72
2023-05-16T10:18:40.792Z,100886.97
2023-05-16T10:21:14.843Z,100888.41
2023-05-16T10:23:49.190Z,100884.16
2023-05-16T10:26:17.376Z,100890.84
2023-05-16T10:28:44.667Z,100885.28
2023-05-16T10:31:11.828Z,100889.56
2023-05-16T10:33:39.891Z,100885.28
2023-05-16T10:36:15.608Z,100879.78
2023-05-16T10:38:43.037Z,100879.75
2023-05-16T10:41:10.171Z,100895.94
2023-05-16T10:43:36.814Z,100893.75
2023-05-16T10:46:05.574Z,100904.59
2023-05-16T10:48:42.261Z,100912.47
2023-05-16T10:51:23.813Z,100905.97
2023-05-16T10:53:54.738Z,100910.56
2023-05-16T10:56:26.726Z,100902.84
2023-05-16T10:58:54.493Z,100908.75
2023-05-16T11:01:27.107Z,100913.34
2023-05-16T11:03:57.273Z,100912.03
2023-05-16T11:06:25.697Z,100907.88
2023-05-16T11:09:06.796Z,100905.31
2023-05-16T11:11:48.983Z,100922.34
2023-05-16T11:14:25.593Z,100923.09
2023-05-16T11:16:55.462Z,100930.97
2023-05-16T11:19:34.286Z,100927.00
2023-05-16T11:22:19.395Z,100939.53
2023-05-16T11:25:05.459Z,100933.41
2023-05-16T11:27:33.959Z,100933.41
2023-05-16T11:30:11.229Z,100941.03
2023-05-16T11:32:39.982Z,100941.84
2023-05-16T11:35:09.599Z,100947.69
2023-05-16T11:37:39.337Z,100941.97
2023-05-16T11:40:08.553Z,100945.38
2023-05-16T11:42:44.087Z,100948.81
2023-05-16T11:45:13.122Z,100943.44
2023-05-16T11:47:40.653Z,100939.22
2023-05-16T11:50:17.224Z,100941.63
2023-05-16T11:52:47.540Z,100932.22
2023-05-16T11:55:39.489Z,100931.16
2023-05-16T11:58:02.780Z,100934.50
2023-05-16T12:00:29.304Z,100944.19
2023-05-16T12:03:03.135Z,100937.56
2023-05-16T12:05:32.100Z,100927.72
2023-05-16T12:07:59.882Z,100934.47
2023-05-16T12:10:26.889Z,100935.97
2023-05-16T12:12:54.980Z,100928.41
2023-05-16T12:15:22.695Z,100929.63
2023-05-16T12:17:49.520Z,100926.03
2023-05-16T12:20:16.687Z,100925.22
2023-05-16T12:22:47.166Z,100930.94
2023-05-16T12:25:24.001Z,100933.44
2023-05-16T12:27:51.126Z,100938.00
2023-05-16T12:30:18.814Z,100943.72
2023-05-16T12:32:45.918Z,100943.53
2023-05-16T12:35:13.293Z,100947.44
2023-05-16T12:37:39.861Z,100954.66
2023-05-16T12:40:10.815Z,100953.97
2023-05-16T12:42:38.016Z,100961.88
2023-05-16T12:45:05.553Z,100958.63
2023-05-16T12:47:36.992Z,100964.88
2023-05-16T12:50:08.861Z,100960.16
2023-05-16T12:52:35.331Z,100949.16
2023-05-16T12:55:02.066Z,100955.66
2023-05-16T12:57:28.734Z,100952.31
2023-05-16T12:59:55.219Z,100943.75
2023-05-16T13:02:22.591Z,100935.13
2023-05-16T13:04:49.106Z,100937.53
2023-05-16T13:07:17.560Z,100932.31
2023-05-16T13:09:44.170Z,100935.81
2023-05-16T13:12:10.980Z,100931.59
2023-05-16T13:14:37.474Z,100923.59
2023-05-16T13:17:04.643Z,100920.91
2023-05-16T13:19:31.867Z,100923.59
2023-05-16T13:21:58.482Z,100928.28
2023-05-16T13:24:25.065Z,100928.63
2023-05-16T13:26:51.552Z,100932.16
2023-05-16T13:29:18.208Z,100918.19
2023-05-16T13:31:44.876Z,100923.09
2023-05-16T13:34:11.452Z,100917.91
2023-05-16T13:36:52.138Z,100923.81
2023-05-16T13:39:20.134Z,100918.31
2023-05-16T13:41:48.997Z,100925.03
2023-05-16T13:44:16.217Z,100933.13
2023-05-16T13:46:43.171Z,100943.56
2023-05-16T13:49:09.810Z,100945.91
2023-05-16T13:51:36.407Z,100951.78
2023-05-16T13:54:02.976Z,100955.25
2023-05-16T13:56:29.444Z,100950.03
2023-05-16T13:59:03.645Z,100948.00
2023-05-16T14:01:32.858Z,100940.00
2023-05-16T14:03:59.604Z,100938.88
2023-05-16T14:06:26.359Z,100928.16
2023-05-16T14:08:52.880Z,100930.09
2023-05-16T14:11:19.926Z,100941.22
2023-05-16T14:13:46.633Z,100937.72
2023-05-16T14:16:13.219Z,100945.41
2023-05-16T14:18:39.733Z,100955.78
2023-05-16T14:21:06.340Z,100962.88
2023-05-16T14:23:32.860Z,100962.72
2023-05-16T14:25:59.315Z,100955.81
2023-05-16T14:28:25.800Z,100952.94
2023-05-16T14:30:52.288Z,100951.53
2023-05-16T14:33:18.933Z,100952.75
2023-05-16T14:35:45.489Z,100954.78
2023-05-16T14:38:11.969Z,100966.13
2023-05-16T14:40:38.650Z,100964.41
2023-05-16T14:43:05.212Z,100960.19
2023-05-16T14:45:31.771Z,100957.31
2023-05-16T14:47:58.284Z,100960.38
2023-05-16T14:50:24.896Z,100958.03
2023-05-16T14:52:52.672Z,100957.19
2023-05-16T14:55:20.035Z,100944.72
2023-05-16T14:57:48.850Z,100949.94
2023-05-16T15:00:17.544Z,100948.91
2023-05-16T15:02:44.761Z,100948.03
2023-05-16T15:05:11.323Z,100941.88
2023-05-16T15:07:37.887Z,100946.88
2023-05-16T15:10:04.633Z,100940.31
2023-05-16T15:12:31.265Z,100935.44
2023-05-16T15:14:57.801Z,100937.16
2023-05-16T15:17:24.620Z,100933.94
2023-05-16T15:19:53.141Z,100937.91
2023-05-16T15:22:22.745Z,100937.63
2023-05-16T15:24:49.373Z,100952.94
2023-05-16T15:27:16.105Z,100944.16
2023-05-16T15:29:42.609Z,100945.50
2023-05-16T15:32:09.568Z,100945.78
2023-05-16T15:34:36.144Z,100938.78
2023-05-16T15:37:02.830Z,100944.19
2023-05-16T15:39:29.386Z,100951.09
2023-05-16T15:42:10.210Z,100944.22
2023-05-16T15:44:38.344Z,100944.06
2023-05-16T15:47:05.363Z,100946.28
2023-05-16T15:49:31.886Z,100950.28
2023-05-16T15:51:58.458Z,100945.69
2023-05-16T15:54:24.964Z,100941.50
2023-05-16T15:56:51.607Z,100938.59
2023-05-16T15:59:18.250Z,100948.03
2023-05-16T16:01:44.859Z,100948.03
2023-05-16T16:04:11.726Z,100946.19
2023-05-16T16:06:38.409Z,100947.66
2023-05-16T16:09:05.142Z,100952.25
2023-05-16T16:11:31.917Z,100951.97
2023-05-16T16:13:58.606Z,100948.50
2023-05-16T16:16:25.198Z,100952.25
2023-05-16T16:18:52.048Z,100951.97
2023-05-16T16:21:18.721Z,100951.09
2023-05-16T16:23:45.466Z,100950.13
2023-05-16T16:26:11.983Z,100945.03
2023-05-16T16:28:38.854Z,100952.09
2023-05-16T16:31:05.514Z,100961.09
2023-05-16T16:33:32.193Z,100947.19
2023-05-16T16:35:59.424Z,100952.72
2023-05-16T16:38:26.345Z,100945.44
2023-05-16T16:40:53.209Z,100950.69
2023-05-16T16:43:19.785Z,100950.69
2023-05-16T16:45:46.398Z,100943.38
2023-05-16T16:48:12.930Z,100944.50
2023-05-16T16:50:40.173Z,100934.59
2023-05-16T16:53:06.730Z,100936.41
2023-05-16T16:55:33.411Z,100930.28
2023-05-16T16:58:02.387Z,100935.56
2023-05-16T17:00:31.596Z,100943.16
2023-05-16T17:02:58.738Z,100936.91
2023-05-16T17:05:25.636Z,100936.91
2023-05-16T17:07:52.524Z,100938.09
2023-05-16T17:10:19.012Z,100938.63
2023-05-16T17:12:49.396Z,100936.78
2023-05-16T17:15:19.762Z,100951.53
2023-05-16T17:17:49.304Z,100951.81
2023-05-16T17:20:16.019Z,100953.50
2023-05-16T17:22:42.546Z,100953.97
2023-05-16T17:25:09.808Z,100963.25
2023-05-16T17:27:36.317Z,100965.91
2023-05-16T17:30:04.635Z,100963.38
2023-05-16T17:32:31.711Z,100974.00
2023-05-16T17:35:00.416Z,100974.31
2023-05-16T17:37:27.016Z,100979.69
2023-05-16T17:39:53.536Z,100990.31
2023-05-16T17:42:20.021Z,100987.06
2023-05-16T17:44:46.544Z,100988.53
2023-05-16T17:47:13.666Z,100991.53
2023-05-16T17:49:40.730Z,100985.84
2023-05-16T17:52:07.799Z,100989.69
2023-05-16T17:54:34.339Z,100993.09
2023-05-16T17:57:01.746Z,101002.16
2023-05-16T17:59:28.449Z,101005.69
2023-05-16T18:01:57.432Z,101012.41
2023-05-16T18:04:24.460Z,101015.78
2023-05-16T18:06:54.491Z,101024.75
2023-05-16T18:09:21.161Z,101029.78
2023-05-16T18:11:47.692Z,101036.97
2023-05-16T18:14:14.414Z,101038.47
2023-05-16T18:16:40.971Z,101041.03
2023-05-16T18:19:08.777Z,101040.84
2023-05-16T18:21:36.429Z,101049.06
2023-05-16T18:24:03.029Z,101057.13
2023-05-16T18:26:29.831Z,101064.22
2023-05-16T18:28:58.049Z,101058.34
2023-05-16T18:31:24.716Z,101065.28
2023-05-16T18:33:51.756Z,101071.28
2023-05-16T18:36:18.766Z,101068.84
2023-05-16T18:38:45.653Z,101078.16
2023-05-16T18:41:12.235Z,101066.44
2023-05-16T18:43:38.752Z,101067.19
2023-05-16T18:46:05.280Z,101064.41
2023-05-16T18:48:33.417Z,101071.94
2023-05-16T18:51:02.222Z,101082.75
2023-05-16T18:53:28.701Z,101083.22
2023-05-16T18:55:56.007Z,101088.28
2023-05-16T18:58:22.565Z,101091.22
2023-05-16T19:00:49.132Z,101092.66
2023-05-16T19:03:15.741Z,101104.16
2023-05-16T19:05:42.588Z,101102.56
2023-05-16T19:08:09.315Z,101111.69
2023-05-16T19:10:38.508Z,101121.28
2023-05-16T19:13:08.744Z,101127.25
2023-05-16T19:15:36.317Z,101135.13
2023-05-16T19:18:04.943Z,101135.81
2023-05-16T19:20:33.609Z,101136.88
2023-05-16T19:23:00.386Z,101144.53
2023-05-16T19:25:27.234Z,101146.81
2023-05-16T19:27:54.544Z,101148.81
2023-05-16T19:30:21.222Z,101156.56
2023-05-16T19:32:47.812Z,101158.16
2023-05-16T19:35:14.646Z,101155.94
2023-05-16T19:37:41.175Z,101157.06
2023-05-16T19:40:08.407Z,101162.47
2023-05-16T19:42:34.977Z,101165.56
2023-05-16T19:45:01.615Z,101171.25
2023-05-16T19:47:28.252Z,101173.19
2023-05-16T19:49:55.111Z,101183.41
2023-05-16T19:52:21.793Z,101178.94
2023-05-16T19:54:48.357Z,101187.50
2023-05-16T19:57:14.975Z,101189.06
2023-05-16T19:59:41.493Z,101193.44
2023-05-16T20:02:08.171Z,101193.91
2023-05-16T20:04:34.729Z,101186.16
2023-05-16T20:07:01.230Z,101189.81
2023-05-16T20:09:28.513Z,101196.03
2023-05-16T20:11:57.273Z,101188.72
2023-05-16T20:14:23.830Z,101195.22
2023-05-16T20:16:51.448Z,101193.38
2023-05-16T20:19:19.216Z,101193.50
2023-05-16T20:21:46.457Z,101191.38
2023-05-16T20:24:13.626Z,101199.84
2023-05-16T20:26:40.495Z,101198.56
2023-05-16T20:29:07.032Z,101202.75
2023-05-16T20:31:33.674Z,101197.53
2023-05-16T20:34:00.505Z,101196.16
2023-05-16T20:36:27.132Z,101201.91
2023-05-16T20:38:53.744Z,101195.84
2023-05-16T20:41:20.334Z,101201.91
2023-05-16T20:43:46.884Z,101206.56
2023-05-16T20:46:13.552Z,101206.28
2023-05-16T20:48:40.121Z,101207.97
2023-05-16T20:51:06.810Z,101205.84
2023-05-16T20:53:33.371Z,101207.38
2023-05-16T20:55:59.858Z,101207.09
2023-05-16T20:58:26.306Z,101212.03
2023-05-16T21:00:52.797Z,101216.81
2023-05-16T21:03:19.267Z,101206.81
2023-05-16T21:05:45.845Z,101215.94
2023-05-16T21:08:12.370Z,101211.19
2023-05-16T21:10:39.140Z,101217.50
2023-05-16T21:13:06.170Z,101219.75
2023-05-16T21:15:32.761Z,101217.19
2023-05-16T21:17:59.420Z,101227.47
2023-05-16T21:20:28.411Z,101226.63
2023-05-16T21:22:54.989Z,101227.56
2023-05-16T21:25:21.734Z,101220.13
2023-05-16T21:27:48.243Z,101223.34
2023-05-16T21:30:14.963Z,101236.00
2023-05-16T21:32:41.597Z,101228.94
2023-05-16T21:35:08.968Z,101240.75
2023-05-16T21:37:35.570Z,101239.88
2023-05-16T21:40:02.340Z,101239.03
2023-05-16T21:42:28.821Z,101237.03
2023-05-16T21:44:55.443Z,101241.22
2023-05-16T21:47:21.939Z,101243.03
2023-05-16T21:49:48.453Z,101234.13
2023-05-16T21:52:15.105Z,101243.41
2023-05-16T21:54:41.852Z,101239.00
2023-05-16T21:57:08.340Z,101233.66
2023-05-16T21:59:34.815Z,101241.97
2023-05-16T22:02:01.331Z,101240.25
2023-05-16T22:04:28.055Z,101235.81
2023-05-16T22:06:54.600Z,101239.34
2023-05-16T22:09:21.178Z,101237.66
2023-05-16T22:11:47.762Z,101234.53
2023-05-16T22:14:14.322Z,101244.50
2023-05-16T22:16:40.797Z,101245.00
2023-05-16T22:19:08.882Z,101252.03
2023-05-16T22:21:36.039Z,101251.34
2023-05-16T22:24:02.544Z,101250.34
2023-05-16T22:26:29.066Z,101241.97
2023-05-16T22:28:55.641Z,101243.94
2023-05-16T22:31:22.156Z,101246.66
2023-05-16T22:33:48.674Z,101241.19
2023-05-16T22:36:15.214Z,101250.56
2023-05-16T22:38:41.826Z,101252.00
2023-05-16T22:41:08.362Z,101249.84
2023-05-16T22:43:35.171Z,101244.78
2023-05-16T22:46:03.145Z,101252.03
2023-05-16T22:48:29.947Z,101249.03
2023-05-16T22:50:57.318Z,101258.03
2023-05-16T22:53:23.989Z,101260.84
2023-05-16T22:55:50.925Z,101259.13
2023-05-16T22:58:17.899Z,101262.44
2023-05-16T23:00:44.418Z,101263.66
2023-05-16T23:03:11.101Z,101255.66
2023-05-16T23:05:37.636Z,101262.09
2023-05-16T23:08:04.407Z,101262.94
2023-05-16T23:10:31.426Z,101262.09
2023-05-16T23:12:58.008Z,101259.81
2023-05-16T23:15:24.507Z,101253.63
2023-05-16T23:17:51.770Z,101259.22
2023-05-16T23:20:18.427Z,101257.50
2023-05-16T23:22:44.951Z,101272.44
2023-05-16T23:25:11.571Z,101270.63
2023-05-16T23:27:38.070Z,101272.69
2023-05-16T23:30:05.073Z,101275.25
2023-05-16T23:32:31.634Z,101268.44
2023-05-16T23:34:58.221Z,101270.88
2023-05-16T23:37:24.822Z,101278.16
2023-05-16T23:39:51.284Z,101279.34
2023-05-16T23:42:17.765Z,101279.50
2023-05-16T23:44:44.236Z,101276.34
2023-05-16T23:47:10.781Z,101275.59
2023-05-16T23:49:37.441Z,101288.72
2023-05-16T23:52:05.900Z,101285.44
2023-05-16T23:54:33.586Z,101288.81
2023-05-16T23:57:00.145Z,101285.31
2023-05-16T23:59:26.773Z,101276.84
